sensor_id;sensor_type;location;lat;lon;timestamp;P1;durP1;ratioP1;P2;durP2;ratioP2
14394;SDS011;7282;49.204;10.652;2023-04-16T00:02:08;38.10;;;21.73;;
14394;SDS011;7282;49.204;10.652;2023-04-16T00:04:34;41.30;;;22.50;;
14394;SDS011;7282;49.204;10.652;2023-04-16T00:07:01;40.83;;;23.03;;
14394;SDS011;7282;49.204;10.652;2023-04-16T00:09:28;39.80;;;21.83;;
14394;SDS011;7282;49.204;10.652;2023-04-16T00:11:55;38.43;;;22.47;;
14394;SDS011;7282;49.204;10.652;2023-04-16T00:14:21;36.00;;;21.90;;
14394;SDS011;7282;49.204;10.652;2023-04-16T00:16:48;43.20;;;23.50;;
14394;SDS011;7282;49.204;10.652;2023-04-16T00:19:15;42.97;;;23.70;;
14394;SDS011;7282;49.204;10.652;2023-04-16T00:21:41;40.67;;;22.77;;
14394;SDS011;7282;49.204;10.652;2023-04-16T00:24:08;39.17;;;22.87;;
14394;SDS011;7282;49.204;10.652;2023-04-16T00:26:35;40.57;;;23.47;;
14394;SDS011;7282;49.204;10.652;2023-04-16T00:29:02;38.23;;;22.80;;
14394;SDS011;7282;49.204;10.652;2023-04-16T00:31:29;41.83;;;23.40;;
14394;SDS011;7282;49.204;10.652;2023-04-16T00:33:56;44.43;;;22.70;;
14394;SDS011;7282;49.204;10.652;2023-04-16T00:36:23;45.83;;;23.50;;
14394;SDS011;7282;49.204;10.652;2023-04-16T00:38:50;44.90;;;23.50;;
14394;SDS011;7282;49.204;10.652;2023-04-16T00:41:17;44.97;;;23.87;;
14394;SDS011;7282;49.204;10.652;2023-04-16T00:43:44;42.70;;;23.37;;
14394;SDS011;7282;49.204;10.652;2023-04-16T00:46:11;43.43;;;23.20;;
14394;SDS011;7282;49.204;10.652;2023-04-16T00:48:38;42.10;;;23.60;;
14394;SDS011;7282;49.204;10.652;2023-04-16T00:51:06;43.87;;;22.17;;
14394;SDS011;7282;49.204;10.652;2023-04-16T00:53:33;40.37;;;22.40;;
14394;SDS011;7282;49.204;10.652;2023-04-16T00:56:01;41.87;;;22.30;;
14394;SDS011;7282;49.204;10.652;2023-04-16T00:58:28;43.27;;;22.97;;
14394;SDS011;7282;49.204;10.652;2023-04-16T01:00:55;42.90;;;21.87;;
14394;SDS011;7282;49.204;10.652;2023-04-16T01:03:22;40.10;;;22.10;;
14394;SDS011;7282;49.204;10.652;2023-04-16T01:05:49;43.50;;;22.50;;
14394;SDS011;7282;49.204;10.652;2023-04-16T01:08:19;45.10;;;23.43;;
14394;SDS011;7282;49.204;10.652;2023-04-16T01:10:46;50.93;;;24.90;;
14394;SDS011;7282;49.204;10.652;2023-04-16T01:13:13;49.93;;;24.27;;
14394;SDS011;7282;49.204;10.652;2023-04-16T01:15:39;52.27;;;23.83;;
14394;SDS011;7282;49.204;10.652;2023-04-16T01:18:13;46.77;;;23.53;;
14394;SDS011;7282;49.204;10.652;2023-04-16T01:20:40;47.93;;;23.90;;
14394;SDS011;7282;49.204;10.652;2023-04-16T01:23:06;50.23;;;23.77;;
14394;SDS011;7282;49.204;10.652;2023-04-16T01:25:33;52.70;;;25.30;;
14394;SDS011;7282;49.204;10.652;2023-04-16T01:28:00;50.20;;;23.63;;
14394;SDS011;7282;49.204;10.652;2023-04-16T01:30:26;44.83;;;24.80;;
14394;SDS011;7282;49.204;10.652;2023-04-16T01:32:53;40.23;;;22.33;;
14394;SDS011;7282;49.204;10.652;2023-04-16T01:35:20;48.50;;;23.27;;
14394;SDS011;7282;49.204;10.652;2023-04-16T01:37:48;39.57;;;22.83;;
14394;SDS011;7282;49.204;10.652;2023-04-16T01:40:15;46.37;;;24.57;;
14394;SDS011;7282;49.204;10.652;2023-04-16T01:42:41;45.83;;;24.17;;
14394;SDS011;7282;49.204;10.652;2023-04-16T01:45:08;45.53;;;24.93;;
14394;SDS011;7282;49.204;10.652;2023-04-16T01:47:35;45.47;;;23.00;;
14394;SDS011;7282;49.204;10.652;2023-04-16T01:50:02;44.67;;;23.47;;
14394;SDS011;7282;49.204;10.652;2023-04-16T01:52:29;50.60;;;26.03;;
14394;SDS011;7282;49.204;10.652;2023-04-16T01:54:56;45.67;;;23.63;;
14394;SDS011;7282;49.204;10.652;2023-04-16T01:57:23;44.93;;;23.70;;
14394;SDS011;7282;49.204;10.652;2023-04-16T01:59:49;45.13;;;22.23;;
14394;SDS011;7282;49.204;10.652;2023-04-16T02:02:16;43.70;;;23.43;;
14394;SDS011;7282;49.204;10.652;2023-04-16T02:04:43;44.87;;;22.90;;
14394;SDS011;7282;49.204;10.652;2023-04-16T02:07:10;44.63;;;24.17;;
14394;SDS011;7282;49.204;10.652;2023-04-16T02:09:37;45.70;;;24.50;;
14394;SDS011;7282;49.204;10.652;2023-04-16T02:12:04;45.33;;;25.23;;
14394;SDS011;7282;49.204;10.652;2023-04-16T02:14:31;52.83;;;26.33;;
14394;SDS011;7282;49.204;10.652;2023-04-16T02:16:58;42.43;;;23.07;;
14394;SDS011;7282;49.204;10.652;2023-04-16T02:19:25;44.30;;;23.07;;
14394;SDS011;7282;49.204;10.652;2023-04-16T02:21:52;51.13;;;24.60;;
14394;SDS011;7282;49.204;10.652;2023-04-16T02:24:19;49.77;;;24.27;;
14394;SDS011;7282;49.204;10.652;2023-04-16T02:26:46;48.43;;;23.77;;
14394;SDS011;7282;49.204;10.652;2023-04-16T02:29:13;45.43;;;23.43;;
14394;SDS011;7282;49.204;10.652;2023-04-16T02:31:41;47.10;;;23.50;;
14394;SDS011;7282;49.204;10.652;2023-04-16T02:34:08;45.07;;;23.00;;
14394;SDS011;7282;49.204;10.652;2023-04-16T02:36:34;42.90;;;23.20;;
14394;SDS011;7282;49.204;10.652;2023-04-16T02:39:01;49.33;;;23.80;;
14394;SDS011;7282;49.204;10.652;2023-04-16T02:41:28;47.17;;;24.10;;
14394;SDS011;7282;49.204;10.652;2023-04-16T02:43:54;46.63;;;24.77;;
14394;SDS011;7282;49.204;10.652;2023-04-16T02:46:26;46.07;;;23.07;;
14394;SDS011;7282;49.204;10.652;2023-04-16T02:48:50;46.83;;;23.37;;
14394;SDS011;7282;49.204;10.652;2023-04-16T02:51:17;46.33;;;25.10;;
14394;SDS011;7282;49.204;10.652;2023-04-16T02:53:43;46.27;;;23.37;;
14394;SDS011;7282;49.204;10.652;2023-04-16T02:56:11;43.50;;;22.80;;
14394;SDS011;7282;49.204;10.652;2023-04-16T02:58:38;39.70;;;21.83;;
14394;SDS011;7282;49.204;10.652;2023-04-16T03:01:04;43.33;;;22.33;;
14394;SDS011;7282;49.204;10.652;2023-04-16T03:03:31;42.00;;;22.00;;
14394;SDS011;7282;49.204;10.652;2023-04-16T03:05:58;42.63;;;22.10;;
14394;SDS011;7282;49.204;10.652;2023-04-16T03:08:24;42.43;;;20.80;;
14394;SDS011;7282;49.204;10.652;2023-04-16T03:10:51;37.43;;;18.80;;
14394;SDS011;7282;49.204;10.652;2023-04-16T03:13:18;37.60;;;19.50;;
14394;SDS011;7282;49.204;10.652;2023-04-16T03:15:48;42.77;;;20.47;;
14394;SDS011;7282;49.204;10.652;2023-04-16T03:18:15;35.53;;;19.13;;
14394;SDS011;7282;49.204;10.652;2023-04-16T03:20:41;40.00;;;20.10;;
14394;SDS011;7282;49.204;10.652;2023-04-16T03:23:08;35.77;;;19.17;;
14394;SDS011;7282;49.204;10.652;2023-04-16T03:25:35;41.03;;;19.47;;
14394;SDS011;7282;49.204;10.652;2023-04-16T03:28:02;36.50;;;19.37;;
14394;SDS011;7282;49.204;10.652;2023-04-16T03:30:28;38.67;;;19.03;;
14394;SDS011;7282;49.204;10.652;2023-04-16T03:32:55;38.97;;;19.87;;
14394;SDS011;7282;49.204;10.652;2023-04-16T03:35:22;41.43;;;19.17;;
14394;SDS011;7282;49.204;10.652;2023-04-16T03:37:49;38.17;;;18.10;;
14394;SDS011;7282;49.204;10.652;2023-04-16T03:40:16;38.57;;;19.43;;
14394;SDS011;7282;49.204;10.652;2023-04-16T03:42:43;34.53;;;17.60;;
14394;SDS011;7282;49.204;10.652;2023-04-16T03:45:10;39.73;;;17.53;;
14394;SDS011;7282;49.204;10.652;2023-04-16T03:47:37;35.13;;;17.93;;
14394;SDS011;7282;49.204;10.652;2023-04-16T03:50:03;39.33;;;17.83;;
14394;SDS011;7282;49.204;10.652;2023-04-16T03:52:30;39.37;;;19.10;;
14394;SDS011;7282;49.204;10.652;2023-04-16T03:54:57;35.97;;;17.67;;
14394;SDS011;7282;49.204;10.652;2023-04-16T03:57:24;33.90;;;17.30;;
14394;SDS011;7282;49.204;10.652;2023-04-16T03:59:50;39.93;;;17.90;;
14394;SDS011;7282;49.204;10.652;2023-04-16T04:02:17;39.23;;;17.20;;
14394;SDS011;7282;49.204;10.652;2023-04-16T04:04:44;36.43;;;16.87;;
14394;SDS011;7282;49.204;10.652;2023-04-16T04:07:10;35.43;;;17.20;;
14394;SDS011;7282;49.204;10.652;2023-04-16T04:09:37;33.87;;;16.67;;
14394;SDS011;7282;49.204;10.652;2023-04-16T04:12:04;31.93;;;15.97;;
14394;SDS011;7282;49.204;10.652;2023-04-16T04:14:30;35.30;;;16.30;;
14394;SDS011;7282;49.204;10.652;2023-04-16T04:16:57;33.53;;;16.17;;
14394;SDS011;7282;49.204;10.652;2023-04-16T04:19:24;28.70;;;14.23;;
14394;SDS011;7282;49.204;10.652;2023-04-16T04:21:52;34.27;;;15.70;;
14394;SDS011;7282;49.204;10.652;2023-04-16T04:24:19;29.63;;;14.33;;
14394;SDS011;7282;49.204;10.652;2023-04-16T04:26:46;29.90;;;13.80;;
14394;SDS011;7282;49.204;10.652;2023-04-16T04:29:12;30.23;;;13.57;;
14394;SDS011;7282;49.204;10.652;2023-04-16T04:31:39;29.67;;;13.67;;
14394;SDS011;7282;49.204;10.652;2023-04-16T04:34:06;30.43;;;14.03;;
14394;SDS011;7282;49.204;10.652;2023-04-16T04:36:33;23.73;;;12.00;;
14394;SDS011;7282;49.204;10.652;2023-04-16T04:38:59;23.27;;;12.10;;
14394;SDS011;7282;49.204;10.652;2023-04-16T04:41:26;16.33;;;8.87;;
14394;SDS011;7282;49.204;10.652;2023-04-16T04:43:53;16.83;;;8.67;;
14394;SDS011;7282;49.204;10.652;2023-04-16T04:46:19;16.47;;;8.50;;
14394;SDS011;7282;49.204;10.652;2023-04-16T04:48:46;17.27;;;9.60;;
14394;SDS011;7282;49.204;10.652;2023-04-16T04:51:13;14.17;;;9.00;;
14394;SDS011;7282;49.204;10.652;2023-04-16T04:53:39;18.60;;;9.87;;
14394;SDS011;7282;49.204;10.652;2023-04-16T04:56:06;17.27;;;9.20;;
14394;SDS011;7282;49.204;10.652;2023-04-16T04:58:33;17.10;;;9.43;;
14394;SDS011;7282;49.204;10.652;2023-04-16T05:01:00;13.40;;;9.03;;
14394;SDS011;7282;49.204;10.652;2023-04-16T05:03:26;16.00;;;9.13;;
14394;SDS011;7282;49.204;10.652;2023-04-16T05:05:53;18.10;;;10.07;;
14394;SDS011;7282;49.204;10.652;2023-04-16T05:08:20;14.20;;;9.13;;
14394;SDS011;7282;49.204;10.652;2023-04-16T05:10:46;15.00;;;9.17;;
14394;SDS011;7282;49.204;10.652;2023-04-16T05:13:13;13.17;;;8.43;;
14394;SDS011;7282;49.204;10.652;2023-04-16T05:15:40;12.30;;;8.50;;
14394;SDS011;7282;49.204;10.652;2023-04-16T05:18:06;12.20;;;8.70;;
14394;SDS011;7282;49.204;10.652;2023-04-16T05:20:33;13.23;;;8.63;;
14394;SDS011;7282;49.204;10.652;2023-04-16T05:23:00;12.90;;;8.33;;
14394;SDS011;7282;49.204;10.652;2023-04-16T05:25:26;13.43;;;7.77;;
14394;SDS011;7282;49.204;10.652;2023-04-16T05:27:53;11.40;;;7.30;;
14394;SDS011;7282;49.204;10.652;2023-04-16T05:30:20;12.33;;;7.63;;
14394;SDS011;7282;49.204;10.652;2023-04-16T05:32:46;13.90;;;7.70;;
14394;SDS011;7282;49.204;10.652;2023-04-16T05:35:13;12.23;;;7.63;;
14394;SDS011;7282;49.204;10.652;2023-04-16T05:37:40;13.10;;;8.13;;
14394;SDS011;7282;49.204;10.652;2023-04-16T05:40:07;16.57;;;9.57;;
14394;SDS011;7282;49.204;10.652;2023-04-16T05:42:34;17.50;;;9.87;;
14394;SDS011;7282;49.204;10.652;2023-04-16T05:45:01;18.17;;;10.20;;
14394;SDS011;7282;49.204;10.652;2023-04-16T05:47:29;15.83;;;9.57;;
14394;SDS011;7282;49.204;10.652;2023-04-16T05:49:56;17.97;;;10.43;;
14394;SDS011;7282;49.204;10.652;2023-04-16T05:52:23;18.00;;;10.23;;
14394;SDS011;7282;49.204;10.652;2023-04-16T05:54:49;20.27;;;12.17;;
14394;SDS011;7282;49.204;10.652;2023-04-16T05:57:16;16.67;;;10.37;;
14394;SDS011;7282;49.204;10.652;2023-04-16T05:59:43;19.60;;;11.33;;
14394;SDS011;7282;49.204;10.652;2023-04-16T06:02:09;23.23;;;13.30;;
14394;SDS011;7282;49.204;10.652;2023-04-16T06:04:36;21.57;;;12.10;;
14394;SDS011;7282;49.204;10.652;2023-04-16T06:07:03;24.20;;;12.57;;
14394;SDS011;7282;49.204;10.652;2023-04-16T06:09:29;20.57;;;12.03;;
14394;SDS011;7282;49.204;10.652;2023-04-16T06:11:56;22.73;;;12.20;;
14394;SDS011;7282;49.204;10.652;2023-04-16T06:14:23;22.93;;;12.60;;
14394;SDS011;7282;49.204;10.652;2023-04-16T06:16:49;21.30;;;11.70;;
14394;SDS011;7282;49.204;10.652;2023-04-16T06:19:16;18.33;;;12.17;;
14394;SDS011;7282;49.204;10.652;2023-04-16T06:21:43;16.93;;;11.00;;
14394;SDS011;7282;49.204;10.652;2023-04-16T06:24:10;19.33;;;11.70;;
14394;SDS011;7282;49.204;10.652;2023-04-16T06:26:38;18.60;;;11.37;;
14394;SDS011;7282;49.204;10.652;2023-04-16T06:29:04;18.63;;;11.43;;
14394;SDS011;7282;49.204;10.652;2023-04-16T06:31:31;19.53;;;11.77;;
14394;SDS011;7282;49.204;10.652;2023-04-16T06:33:58;17.60;;;10.47;;
14394;SDS011;7282;49.204;10.652;2023-04-16T06:36:24;18.57;;;11.10;;
14394;SDS011;7282;49.204;10.652;2023-04-16T06:38:52;21.43;;;11.83;;
14394;SDS011;7282;49.204;10.652;2023-04-16T06:41:20;19.30;;;11.17;;
14394;SDS011;7282;49.204;10.652;2023-04-16T06:43:47;21.20;;;12.07;;
14394;SDS011;7282;49.204;10.652;2023-04-16T06:46:14;18.83;;;11.27;;
14394;SDS011;7282;49.204;10.652;2023-04-16T06:48:41;17.27;;;11.33;;
14394;SDS011;7282;49.204;10.652;2023-04-16T06:51:07;18.67;;;11.20;;
14394;SDS011;7282;49.204;10.652;2023-04-16T06:53:35;15.80;;;10.33;;
14394;SDS011;7282;49.204;10.652;2023-04-16T06:56:02;19.13;;;11.07;;
14394;SDS011;7282;49.204;10.652;2023-04-16T06:58:29;21.83;;;12.40;;
14394;SDS011;7282;49.204;10.652;2023-04-16T07:00:55;16.30;;;10.93;;
14394;SDS011;7282;49.204;10.652;2023-04-16T07:03:22;16.23;;;10.43;;
14394;SDS011;7282;49.204;10.652;2023-04-16T07:05:49;16.83;;;11.60;;
14394;SDS011;7282;49.204;10.652;2023-04-16T07:08:16;22.77;;;12.87;;
14394;SDS011;7282;49.204;10.652;2023-04-16T07:10:42;18.63;;;11.90;;
14394;SDS011;7282;49.204;10.652;2023-04-16T07:13:09;15.50;;;10.33;;
14394;SDS011;7282;49.204;10.652;2023-04-16T07:15:36;14.17;;;10.07;;
14394;SDS011;7282;49.204;10.652;2023-04-16T07:18:02;14.73;;;10.47;;
14394;SDS011;7282;49.204;10.652;2023-04-16T07:20:29;13.57;;;9.93;;
14394;SDS011;7282;49.204;10.652;2023-04-16T07:22:56;17.83;;;10.47;;
14394;SDS011;7282;49.204;10.652;2023-04-16T07:25:24;17.53;;;11.10;;
14394;SDS011;7282;49.204;10.652;2023-04-16T07:27:51;21.50;;;11.07;;
14394;SDS011;7282;49.204;10.652;2023-04-16T07:30:18;16.13;;;9.03;;
14394;SDS011;7282;49.204;10.652;2023-04-16T07:32:45;16.10;;;10.53;;
14394;SDS011;7282;49.204;10.652;2023-04-16T07:35:12;20.20;;;10.47;;
14394;SDS011;7282;49.204;10.652;2023-04-16T07:37:38;16.47;;;10.63;;
14394;SDS011;7282;49.204;10.652;2023-04-16T07:40:06;18.23;;;11.37;;
14394;SDS011;7282;49.204;10.652;2023-04-16T07:42:33;16.37;;;10.53;;
14394;SDS011;7282;49.204;10.652;2023-04-16T07:45:00;18.10;;;11.90;;
14394;SDS011;7282;49.204;10.652;2023-04-16T07:47:26;18.40;;;11.67;;
14394;SDS011;7282;49.204;10.652;2023-04-16T07:49:53;20.93;;;11.77;;
14394;SDS011;7282;49.204;10.652;2023-04-16T07:52:20;18.70;;;11.57;;
14394;SDS011;7282;49.204;10.652;2023-04-16T07:54:47;20.50;;;11.30;;
14394;SDS011;7282;49.204;10.652;2023-04-16T07:57:13;17.40;;;11.60;;
14394;SDS011;7282;49.204;10.652;2023-04-16T07:59:41;16.53;;;11.63;;
14394;SDS011;7282;49.204;10.652;2023-04-16T08:02:09;17.67;;;12.37;;
14394;SDS011;7282;49.204;10.652;2023-04-16T08:04:36;21.87;;;13.57;;
14394;SDS011;7282;49.204;10.652;2023-04-16T08:07:03;19.70;;;13.13;;
14394;SDS011;7282;49.204;10.652;2023-04-16T08:09:30;18.43;;;13.17;;
14394;SDS011;7282;49.204;10.652;2023-04-16T08:11:56;21.63;;;14.43;;
14394;SDS011;7282;49.204;10.652;2023-04-16T08:14:23;22.03;;;14.13;;
14394;SDS011;7282;49.204;10.652;2023-04-16T08:16:50;21.90;;;14.43;;
14394;SDS011;7282;49.204;10.652;2023-04-16T08:19:17;20.73;;;13.90;;
14394;SDS011;7282;49.204;10.652;2023-04-16T08:21:44;20.13;;;14.27;;
14394;SDS011;7282;49.204;10.652;2023-04-16T08:24:11;23.00;;;15.30;;
14394;SDS011;7282;49.204;10.652;2023-04-16T08:26:37;24.30;;;15.73;;
14394;SDS011;7282;49.204;10.652;2023-04-16T08:29:04;20.93;;;13.40;;
14394;SDS011;7282;49.204;10.652;2023-04-16T08:31:31;16.30;;;12.70;;
14394;SDS011;7282;49.204;10.652;2023-04-16T08:33:58;17.47;;;11.27;;
14394;SDS011;7282;49.204;10.652;2023-04-16T08:36:25;13.33;;;9.57;;
14394;SDS011;7282;49.204;10.652;2023-04-16T08:38:52;14.17;;;10.40;;
14394;SDS011;7282;49.204;10.652;2023-04-16T08:41:19;13.93;;;10.67;;
14394;SDS011;7282;49.204;10.652;2023-04-16T08:43:47;8.83;;;5.83;;
14394;SDS011;7282;49.204;10.652;2023-04-16T08:46:14;7.67;;;5.90;;
14394;SDS011;7282;49.204;10.652;2023-04-16T08:48:42;7.20;;;5.03;;
14394;SDS011;7282;49.204;10.652;2023-04-16T08:51:11;4.30;;;3.63;;
14394;SDS011;7282;49.204;10.652;2023-04-16T08:53:48;4.00;;;3.60;;
14394;SDS011;7282;49.204;10.652;2023-04-16T08:56:16;3.83;;;3.20;;
14394;SDS011;7282;49.204;10.652;2023-04-16T08:58:44;3.50;;;3.20;;
14394;SDS011;7282;49.204;10.652;2023-04-16T09:01:13;3.90;;;3.50;;
14394;SDS011;7282;49.204;10.652;2023-04-16T09:03:40;4.77;;;3.40;;
14394;SDS011;7282;49.204;10.652;2023-04-16T09:06:07;4.73;;;3.97;;
14394;SDS011;7282;49.204;10.652;2023-04-16T09:08:35;4.30;;;3.67;;
14394;SDS011;7282;49.204;10.652;2023-04-16T09:11:03;4.00;;;3.47;;
14394;SDS011;7282;49.204;10.652;2023-04-16T09:13:32;3.50;;;3.20;;
14394;SDS011;7282;49.204;10.652;2023-04-16T09:15:59;4.43;;;4.03;;
14394;SDS011;7282;49.204;10.652;2023-04-16T09:18:26;6.80;;;4.77;;
14394;SDS011;7282;49.204;10.652;2023-04-16T09:20:53;5.67;;;4.20;;
14394;SDS011;7282;49.204;10.652;2023-04-16T09:23:21;4.80;;;4.27;;
14394;SDS011;7282;49.204;10.652;2023-04-16T09:25:48;5.40;;;4.33;;
14394;SDS011;7282;49.204;10.652;2023-04-16T09:31:09;5.30;;;4.77;;
14394;SDS011;7282;49.204;10.652;2023-04-16T09:33:35;9.70;;;6.43;;
14394;SDS011;7282;49.204;10.652;2023-04-16T09:36:02;8.97;;;6.43;;
14394;SDS011;7282;49.204;10.652;2023-04-16T09:38:44;10.60;;;8.13;;
14394;SDS011;7282;49.204;10.652;2023-04-16T09:41:12;14.17;;;10.30;;
14394;SDS011;7282;49.204;10.652;2023-04-16T09:43:47;15.10;;;10.53;;
14394;SDS011;7282;49.204;10.652;2023-04-16T09:46:10;15.97;;;11.23;;
14394;SDS011;7282;49.204;10.652;2023-04-16T09:48:37;15.23;;;11.60;;
14394;SDS011;7282;49.204;10.652;2023-04-16T09:51:04;16.47;;;11.80;;
14394;SDS011;7282;49.204;10.652;2023-04-16T09:53:31;15.20;;;11.23;;
14394;SDS011;7282;49.204;10.652;2023-04-16T09:55:58;19.87;;;13.83;;
14394;SDS011;7282;49.204;10.652;2023-04-16T09:58:25;19.43;;;14.07;;
14394;SDS011;7282;49.204;10.652;2023-04-16T10:00:55;20.57;;;14.17;;
14394;SDS011;7282;49.204;10.652;2023-04-16T10:03:30;18.27;;;13.77;;
14394;SDS011;7282;49.204;10.652;2023-04-16T10:05:59;17.00;;;13.60;;
14394;SDS011;7282;49.204;10.652;2023-04-16T10:08:26;15.43;;;12.77;;
14394;SDS011;7282;49.204;10.652;2023-04-16T10:10:53;18.40;;;14.33;;
14394;SDS011;7282;49.204;10.652;2023-04-16T10:13:21;18.20;;;13.83;;
14394;SDS011;7282;49.204;10.652;2023-04-16T10:15:47;18.10;;;13.83;;
14394;SDS011;7282;49.204;10.652;2023-04-16T10:18:15;17.93;;;13.70;;
14394;SDS011;7282;49.204;10.652;2023-04-16T10:20:42;17.20;;;13.77;;
14394;SDS011;7282;49.204;10.652;2023-04-16T10:23:09;16.20;;;12.47;;
14394;SDS011;7282;49.204;10.652;2023-04-16T10:25:36;15.43;;;12.30;;
14394;SDS011;7282;49.204;10.652;2023-04-16T10:28:03;14.83;;;11.73;;
14394;SDS011;7282;49.204;10.652;2023-04-16T10:30:30;13.80;;;11.60;;
14394;SDS011;7282;49.204;10.652;2023-04-16T10:32:57;16.07;;;12.30;;
14394;SDS011;7282;49.204;10.652;2023-04-16T10:35:24;13.47;;;10.57;;
14394;SDS011;7282;49.204;10.652;2023-04-16T10:38:37;13.50;;;10.50;;
14394;SDS011;7282;49.204;10.652;2023-04-16T10:40:23;11.67;;;10.07;;
14394;SDS011;7282;49.204;10.652;2023-04-16T10:42:57;11.93;;;10.63;;
14394;SDS011;7282;49.204;10.652;2023-04-16T10:45:29;13.90;;;10.17;;
14394;SDS011;7282;49.204;10.652;2023-04-16T10:47:54;12.20;;;9.80;;
14394;SDS011;7282;49.204;10.652;2023-04-16T10:50:22;11.03;;;9.43;;
14394;SDS011;7282;49.204;10.652;2023-04-16T10:53:00;12.10;;;9.53;;
14394;SDS011;7282;49.204;10.652;2023-04-16T10:55:17;6.80;;;6.10;;
14394;SDS011;7282;49.204;10.652;2023-04-16T10:57:47;5.47;;;4.80;;
14394;SDS011;7282;49.204;10.652;2023-04-16T11:00:22;5.67;;;4.80;;
14394;SDS011;7282;49.204;10.652;2023-04-16T11:02:51;5.23;;;4.30;;
14394;SDS011;7282;49.204;10.652;2023-04-16T11:05:20;4.73;;;4.27;;
14394;SDS011;7282;49.204;10.652;2023-04-16T11:07:46;4.80;;;4.30;;
14394;SDS011;7282;49.204;10.652;2023-04-16T11:10:13;4.13;;;3.73;;
14394;SDS011;7282;49.204;10.652;2023-04-16T11:12:40;3.50;;;3.20;;
14394;SDS011;7282;49.204;10.652;2023-04-16T11:15:08;3.57;;;3.27;;
14394;SDS011;7282;49.204;10.652;2023-04-16T11:17:36;3.77;;;3.47;;
14394;SDS011;7282;49.204;10.652;2023-04-16T11:20:04;4.33;;;3.93;;
14394;SDS011;7282;49.204;10.652;2023-04-16T11:22:33;4.23;;;3.83;;
14394;SDS011;7282;49.204;10.652;2023-04-16T11:25:00;4.00;;;3.70;;
14394;SDS011;7282;49.204;10.652;2023-04-16T11:27:28;3.80;;;3.50;;
14394;SDS011;7282;49.204;10.652;2023-04-16T11:29:56;3.50;;;3.20;;
14394;SDS011;7282;49.204;10.652;2023-04-16T11:32:25;3.57;;;3.27;;
14394;SDS011;7282;49.204;10.652;2023-04-16T11:34:52;4.73;;;3.57;;
14394;SDS011;7282;49.204;10.652;2023-04-16T11:37:19;2.90;;;2.70;;
14394;SDS011;7282;49.204;10.652;2023-04-16T11:39:50;2.70;;;2.50;;
14394;SDS011;7282;49.204;10.652;2023-04-16T11:42:19;2.53;;;2.33;;
14394;SDS011;7282;49.204;10.652;2023-04-16T11:44:54;2.50;;;1.63;;
14394;SDS011;7282;49.204;10.652;2023-04-16T11:47:19;1.53;;;1.43;;
14394;SDS011;7282;49.204;10.652;2023-04-16T11:49:46;1.57;;;1.47;;
14394;SDS011;7282;49.204;10.652;2023-04-16T11:52:13;1.60;;;1.50;;
14394;SDS011;7282;49.204;10.652;2023-04-16T11:54:40;1.90;;;1.80;;
14394;SDS011;7282;49.204;10.652;2023-04-16T11:57:07;1.57;;;1.47;;
14394;SDS011;7282;49.204;10.652;2023-04-16T11:59:34;1.40;;;1.30;;
14394;SDS011;7282;49.204;10.652;2023-04-16T12:02:02;1.83;;;1.73;;
14394;SDS011;7282;49.204;10.652;2023-04-16T12:04:28;1.87;;;1.77;;
14394;SDS011;7282;49.204;10.652;2023-04-16T12:07:11;1.90;;;1.80;;
14394;SDS011;7282;49.204;10.652;2023-04-16T12:09:42;1.83;;;1.73;;
14394;SDS011;7282;49.204;10.652;2023-04-16T12:14:51;2.20;;;2.00;;
14394;SDS011;7282;49.204;10.652;2023-04-16T12:17:19;1.70;;;1.60;;
14394;SDS011;7282;49.204;10.652;2023-04-16T12:20:01;1.57;;;1.47;;
14394;SDS011;7282;49.204;10.652;2023-04-16T12:22:30;1.63;;;1.53;;
14394;SDS011;7282;49.204;10.652;2023-04-16T12:24:57;2.60;;;2.40;;
14394;SDS011;7282;49.204;10.652;2023-04-16T12:27:24;2.70;;;2.50;;
14394;SDS011;7282;49.204;10.652;2023-04-16T12:30:04;3.27;;;2.30;;
14394;SDS011;7282;49.204;10.652;2023-04-16T12:32:32;2.07;;;1.97;;
14394;SDS011;7282;49.204;10.652;2023-04-16T12:34:59;2.00;;;1.90;;
14394;SDS011;7282;49.204;10.652;2023-04-16T12:37:26;2.33;;;2.23;;
14394;SDS011;7282;49.204;10.652;2023-04-16T12:39:53;2.40;;;2.20;;
14394;SDS011;7282;49.204;10.652;2023-04-16T12:42:20;2.20;;;2.00;;
14394;SDS011;7282;49.204;10.652;2023-04-16T12:44:47;2.00;;;1.90;;
14394;SDS011;7282;49.204;10.652;2023-04-16T12:47:13;1.63;;;1.53;;
14394;SDS011;7282;49.204;10.652;2023-04-16T12:49:40;1.83;;;1.73;;
14394;SDS011;7282;49.204;10.652;2023-04-16T12:52:07;1.90;;;1.80;;
14394;SDS011;7282;49.204;10.652;2023-04-16T12:54:33;2.00;;;1.90;;
14394;SDS011;7282;49.204;10.652;2023-04-16T12:57:00;2.33;;;2.13;;
14394;SDS011;7282;49.204;10.652;2023-04-16T12:59:27;2.17;;;1.90;;
14394;SDS011;7282;49.204;10.652;2023-04-16T13:01:54;1.80;;;1.70;;
14394;SDS011;7282;49.204;10.652;2023-04-16T13:04:20;2.40;;;2.20;;
14394;SDS011;7282;49.204;10.652;2023-04-16T13:06:47;2.03;;;1.90;;
14394;SDS011;7282;49.204;10.652;2023-04-16T13:09:14;2.10;;;1.90;;
14394;SDS011;7282;49.204;10.652;2023-04-16T13:11:40;1.70;;;1.60;;
14394;SDS011;7282;49.204;10.652;2023-04-16T13:14:07;2.20;;;1.97;;
14394;SDS011;7282;49.204;10.652;2023-04-16T13:16:34;1.83;;;1.73;;
14394;SDS011;7282;49.204;10.652;2023-04-16T13:19:00;2.30;;;2.10;;
14394;SDS011;7282;49.204;10.652;2023-04-16T13:21:27;2.60;;;2.40;;
14394;SDS011;7282;49.204;10.652;2023-04-16T13:23:54;3.30;;;3.00;;
14394;SDS011;7282;49.204;10.652;2023-04-16T13:26:20;2.63;;;2.43;;
14394;SDS011;7282;49.204;10.652;2023-04-16T13:28:47;3.90;;;3.60;;
14394;SDS011;7282;49.204;10.652;2023-04-16T13:31:14;3.70;;;3.40;;
14394;SDS011;7282;49.204;10.652;2023-04-16T13:33:42;3.60;;;3.30;;
14394;SDS011;7282;49.204;10.652;2023-04-16T13:36:09;4.00;;;3.60;;
14394;SDS011;7282;49.204;10.652;2023-04-16T13:38:36;4.50;;;4.10;;
14394;SDS011;7282;49.204;10.652;2023-04-16T13:41:04;3.97;;;3.67;;
14394;SDS011;7282;49.204;10.652;2023-04-16T13:43:31;4.20;;;3.80;;
14394;SDS011;7282;49.204;10.652;2023-04-16T13:45:58;4.50;;;4.20;;
14394;SDS011;7282;49.204;10.652;2023-04-16T13:48:26;4.80;;;4.40;;
14394;SDS011;7282;49.204;10.652;2023-04-16T13:50:53;3.83;;;3.53;;
14394;SDS011;7282;49.204;10.652;2023-04-16T13:53:21;4.37;;;3.97;;
14394;SDS011;7282;49.204;10.652;2023-04-16T13:55:47;4.67;;;4.27;;
14394;SDS011;7282;49.204;10.652;2023-04-16T13:58:14;4.60;;;4.20;;
14394;SDS011;7282;49.204;10.652;2023-04-16T14:00:41;4.83;;;4.43;;
14394;SDS011;7282;49.204;10.652;2023-04-16T14:03:08;4.60;;;4.20;;
14394;SDS011;7282;49.204;10.652;2023-04-16T14:05:35;4.90;;;4.50;;
14394;SDS011;7282;49.204;10.652;2023-04-16T14:08:02;3.67;;;3.37;;
14394;SDS011;7282;49.204;10.652;2023-04-16T14:10:29;3.93;;;3.60;;
14394;SDS011;7282;49.204;10.652;2023-04-16T14:12:56;3.80;;;3.40;;
14394;SDS011;7282;49.204;10.652;2023-04-16T14:15:23;3.63;;;3.33;;
14394;SDS011;7282;49.204;10.652;2023-04-16T14:17:51;4.20;;;3.70;;
14394;SDS011;7282;49.204;10.652;2023-04-16T14:20:18;3.70;;;3.40;;
14394;SDS011;7282;49.204;10.652;2023-04-16T14:22:45;3.43;;;3.13;;
14394;SDS011;7282;49.204;10.652;2023-04-16T14:25:12;3.30;;;3.10;;
14394;SDS011;7282;49.204;10.652;2023-04-16T14:27:38;3.50;;;3.23;;
14394;SDS011;7282;49.204;10.652;2023-04-16T14:30:06;3.37;;;3.07;;
14394;SDS011;7282;49.204;10.652;2023-04-16T14:32:33;4.10;;;3.33;;
14394;SDS011;7282;49.204;10.652;2023-04-16T14:34:59;3.43;;;3.20;;
14394;SDS011;7282;49.204;10.652;2023-04-16T14:37:26;3.77;;;3.43;;